Wetterdaten: Woche 18.05.20 - 24.05.20 (KW21)
Datum Zeit Temp. 2m rel. Feuchte Luftdruck Regen Wind Richtung Sonne ET UV-Index Solar Taupunkt Ben
18.05.2020 00:00 12,0 C 66 % 1023,2 hPa 0,0 mm 0,0 km/h (0 Bft) N 0,00 h 0,0 mm 0,0 UV-I 0 W/m 5,9 C 0,2 km/h (0 Bft)
18.05.2020 01:00 11,2 C 68 % 1023,1 hPa 0,0 mm 0,8 km/h (0 Bft) O 0,00 h 0,0 mm 0,0 UV-I 0 W/m 5,6 C 2,9 km/h (1 Bft)
18.05.2020 02:00 10,9 C 70 % 1023,1 hPa 0,0 mm 0,6 km/h (0 Bft) O 0,00 h 0,0 mm 0,0 UV-I 0 W/m 5,6 C 3,1 km/h (1 Bft)
18.05.2020 03:00 10,3 C 72 % 1023,1 hPa 0,0 mm 0,7 km/h (0 Bft) O 0,00 h 0,0 mm 0,0 UV-I 0 W/m 5,4 C 3,9 km/h (1 Bft)
18.05.2020 04:00 9,3 C 76 % 1023,1 hPa 0,0 mm 0,1 km/h (0 Bft) N 0,00 h 0,0 mm 0,0 UV-I 0 W/m 5,2 C 0,7 km/h (0 Bft)
18.05.2020 05:00 8,8 C 79 % 1023,0 hPa 0,0 mm 0,0 km/h (0 Bft) N 0,00 h 0,0 mm 0,0 UV-I 6 W/m 5,3 C 0,2 km/h (0 Bft)
18.05.2020 06:00 9,3 C 79 % 1023,1 hPa 0,0 mm 0,1 km/h (0 Bft) N 0,08 h 0,0 mm 0,0 UV-I 47 W/m 5,8 C 1,3 km/h (1 Bft)
18.05.2020 07:00 10,9 C 74 % 1023,3 hPa 0,0 mm 1,1 km/h (1 Bft) O 0,50 h 0,0 mm 0,0 UV-I 148 W/m 6,5 C 5,0 km/h (1 Bft)
18.05.2020 08:00 12,9 C 68 % 1023,3 hPa 0,0 mm 0,9 km/h (0 Bft) O 0,58 h 0,1 mm 0,0 UV-I 249 W/m 7,2 C 4,4 km/h (1 Bft)
18.05.2020 09:00 14,6 C 61 % 1023,7 hPa 0,0 mm 4,6 km/h (1 Bft) O 0,75 h 0,1 mm 0,5 UV-I 409 W/m 7,2 C 11,5 km/h (2 Bft)
18.05.2020 10:00 16,4 C 54 % 1023,6 hPa 0,0 mm 7,6 km/h (2 Bft) NW 1,00 h 0,2 mm 0,9 UV-I 662 W/m 7,1 C 17,9 km/h (3 Bft)
18.05.2020 11:00 18,0 C 52 % 1023,6 hPa 0,0 mm 7,4 km/h (2 Bft) N-NW 1,00 h 0,3 mm 2,1 UV-I 780 W/m 7,8 C 19,8 km/h (4 Bft)
18.05.2020 12:00 19,7 C 47 % 1023,3 hPa 0,0 mm 6,9 km/h (2 Bft) N-NW 1,00 h 0,4 mm 2,9 UV-I 892 W/m 7,9 C 20,0 km/h (4 Bft)
18.05.2020 13:00 21,3 C 44 % 1022,9 hPa 0,0 mm 6,5 km/h (2 Bft) N-NW 1,00 h 0,5 mm 3,8 UV-I 1019 W/m 8,4 C 18,1 km/h (3 Bft)
18.05.2020 14:00 22,4 C 42 % 1022,5 hPa 0,0 mm 7,7 km/h (2 Bft) NW 1,00 h 0,5 mm 3,6 UV-I 1008 W/m 8,7 C 20,2 km/h (4 Bft)
18.05.2020 15:00 23,2 C 42 % 1022,3 hPa 0,0 mm 9,7 km/h (2 Bft) N-NW 1,00 h 0,5 mm 2,9 UV-I 925 W/m 9,5 C 25,6 km/h (4 Bft)
18.05.2020 16:00 23,3 C 42 % 1021,9 hPa 0,0 mm 7,8 km/h (2 Bft) N-NW 1,00 h 0,5 mm 2,0 UV-I 801 W/m 9,7 C 22,2 km/h (4 Bft)
18.05.2020 17:00 24,0 C 40 % 1021,5 hPa 0,0 mm 6,4 km/h (2 Bft) W-NW 1,00 h 0,5 mm 1,1 UV-I 650 W/m 9,4 C 20,0 km/h (4 Bft)
18.05.2020 18:00 23,6 C 41 % 1021,4 hPa 0,0 mm 6,9 km/h (2 Bft) NW 0,92 h 0,4 mm 0,3 UV-I 391 W/m 9,6 C 20,4 km/h (4 Bft)
18.05.2020 19:00 23,2 C 43 % 1021,0 hPa 0,0 mm 5,8 km/h (2 Bft) W-NW 1,00 h 0,3 mm 0,0 UV-I 292 W/m 9,8 C 17,6 km/h (3 Bft)
18.05.2020 20:00 21,5 C 44 % 1021,0 hPa 0,0 mm 1,4 km/h (1 Bft) N-NW 0,25 h 0,2 mm 0,0 UV-I 54 W/m 8,8 C 8,1 km/h (2 Bft)
18.05.2020 21:00 19,4 C 48 % 1021,4 hPa 0,0 mm 3,3 km/h (1 Bft) NW 0,08 h 0,1 mm 0,0 UV-I 9 W/m 8,1 C 6,5 km/h (2 Bft)
18.05.2020 22:00 17,1 C 48 % 1021,9 hPa 0,0 mm 0,3 km/h (0 Bft) N 0,00 h 0,0 mm 0,0 UV-I 0 W/m 6,1 C 1,3 km/h (1 Bft)
18.05.2020 23:00 15,1 C 47 % 1022,3 hPa 0,0 mm 0,5 km/h (0 Bft) NW 0,00 h 0,0 mm 0,0 UV-I 0 W/m 3,7 C 1,5 km/h (1 Bft)
19.05.2020 00:00 13,3 C 53 % 1022,4 hPa 0,0 mm 0,1 km/h (0 Bft) N 0,00 h 0,0 mm 0,0 UV-I 0 W/m 3,9 C 0,6 km/h (0 Bft)
19.05.2020 01:00 12,4 C 55 % 1022,5 hPa 0,0 mm 2,3 km/h (1 Bft) O 0,00 h 0,0 mm 0,0 UV-I 0 W/m 3,5 C 4,8 km/h (1 Bft)
19.05.2020 02:00 12,4 C 53 % 1022,3 hPa 0,0 mm 2,8 km/h (1 Bft) W-NW 0,00 h 0,0 mm 0,0 UV-I 0 W/m 3,1 C 5,0 km/h (1 Bft)
19.05.2020 03:00 11,5 C 58 % 1022,1 hPa 0,0 mm 1,6 km/h (1 Bft) W-NW 0,00 h 0,0 mm 0,0 UV-I 0 W/m 3,5 C 3,9 km/h (1 Bft)
19.05.2020 04:00 9,8 C 65 % 1021,8 hPa 0,0 mm 1,0 km/h (0 Bft) O 0,00 h 0,0 mm 0,0 UV-I 0 W/m 3,6 C 2,0 km/h (1 Bft)
19.05.2020 05:00 9,3 C 68 % 1021,7 hPa 0,0 mm 0,0 km/h (0 Bft) N 0,00 h 0,0 mm 0,0 UV-I 8 W/m 3,8 C 0,0 km/h (0 Bft)
19.05.2020 06:00 9,0 C 73 % 1021,7 hPa 0,0 mm 0,0 km/h (0 Bft) N 0,42 h 0,0 mm 0,0 UV-I 63 W/m 4,4 C 0,6 km/h (0 Bft)
19.05.2020 07:00 10,2 C 70 % 1022,0 hPa 0,0 mm 1,5 km/h (1 Bft) O 1,00 h 0,0 mm 0,0 UV-I 200 W/m 5,0 C 4,5 km/h (1 Bft)
19.05.2020 08:00 13,2 C 55 % 1022,1 hPa 0,0 mm 6,0 km/h (2 Bft) O 0,67 h 0,0 mm 0,0 UV-I 287 W/m 4,2 C 12,0 km/h (2 Bft)
19.05.2020 09:00 15,1 C 47 % 1022,0 hPa 0,0 mm 7,0 km/h (2 Bft) O 0,67 h 0,1 mm 0,5 UV-I 365 W/m 3,7 C 15,9 km/h (3 Bft)
19.05.2020 10:00 16,8 C 45 % 1021,9 hPa 0,0 mm 3,3 km/h (1 Bft) NW 1,00 h 0,2 mm 1,0 UV-I 637 W/m 4,9 C 11,8 km/h (2 Bft)
19.05.2020 11:00 18,4 C 47 % 1022,0 hPa 0,0 mm 5,1 km/h (1 Bft) NW 1,00 h 0,3 mm 2,6 UV-I 907 W/m 6,7 C 15,7 km/h (3 Bft)
19.05.2020 12:00 20,1 C 48 % 1022,0 hPa 0,0 mm 3,1 km/h (1 Bft) N-NW 1,00 h 0,4 mm 3,0 UV-I 889 W/m 8,8 C 12,6 km/h (3 Bft)
19.05.2020 13:00 21,6 C 45 % 1021,5 hPa 0,0 mm 3,7 km/h (1 Bft) NW 1,00 h 0,4 mm 3,7 UV-I 936 W/m 9,3 C 11,4 km/h (2 Bft)
19.05.2020 14:00 22,6 C 44 % 1021,1 hPa 0,0 mm 2,0 km/h (1 Bft) NW 0,83 h 0,5 mm 3,5 UV-I 843 W/m 9,6 C 8,1 km/h (2 Bft)
19.05.2020 15:00 23,5 C 43 % 1020,8 hPa 0,0 mm 2,9 km/h (1 Bft) NW 1,00 h 0,4 mm 2,9 UV-I 981 W/m 10,2 C 11,7 km/h (2 Bft)
19.05.2020 16:00 23,8 C 43 % 1020,6 hPa 0,0 mm 2,0 km/h (1 Bft) N-NW 1,00 h 0,5 mm 2,0 UV-I 803 W/m 10,3 C 9,4 km/h (2 Bft)
19.05.2020 17:00 23,4 C 44 % 1020,2 hPa 0,0 mm 0,6 km/h (0 Bft) NW 0,75 h 0,4 mm 0,8 UV-I 463 W/m 10,4 C 5,0 km/h (1 Bft)
19.05.2020 18:00 22,6 C 47 % 1020,1 hPa 0,0 mm 0,2 km/h (0 Bft) NW 0,08 h 0,2 mm 0,0 UV-I 143 W/m 10,9 C 1,8 km/h (1 Bft)
19.05.2020 19:00 22,4 C 48 % 1020,1 hPa 0,0 mm 0,0 km/h (0 Bft) N 0,67 h 0,1 mm 0,0 UV-I 180 W/m 11,0 C 1,1 km/h (1 Bft)
19.05.2020 20:00 21,8 C 50 % 1020,3 hPa 0,0 mm 0,0 km/h (0 Bft) N 0,33 h 0,1 mm 0,0 UV-I 59 W/m 10,8 C 0,0 km/h (0 Bft)
19.05.2020 21:00 20,2 C 56 % 1020,8 hPa 0,0 mm 0,0 km/h (0 Bft) N 0,00 h 0,0 mm 0,0 UV-I 8 W/m 11,1 C 0,0 km/h (0 Bft)
19.05.2020 22:00 19,6 C 57 % 1021,1 hPa 0,0 mm 0,0 km/h (0 Bft) N 0,00 h 0,0 mm 0,0 UV-I 0 W/m 10,8 C 0,0 km/h (0 Bft)
19.05.2020 23:00 18,6 C 61 % 1021,4 hPa 0,0 mm 0,0 km/h (0 Bft) N 0,00 h 0,0 mm 0,0 UV-I 0 W/m 10,9 C 0,2 km/h (0 Bft)
20.05.2020 00:00 17,9 C 65 % 1021,4 hPa 0,0 mm 0,0 km/h (0 Bft) N 0,00 h 0,0 mm 0,0 UV-I 0 W/m 11,1 C 0,0 km/h (0 Bft)
20.05.2020 01:00 16,6 C 70 % 1021,4 hPa 0,0 mm 0,0 km/h (0 Bft) N 0,00 h 0,0 mm 0,0 UV-I 0 W/m 11,1 C 0,0 km/h (0 Bft)
20.05.2020 02:00 15,4 C 76 % 1021,6 hPa 0,0 mm 0,0 km/h (0 Bft) N 0,00 h 0,0 mm 0,0 UV-I 0 W/m 11,1 C 0,0 km/h (0 Bft)
20.05.2020 03:00 15,2 C 78 % 1021,5 hPa 0,0 mm 0,0 km/h (0 Bft) N 0,00 h 0,0 mm 0,0 UV-I 0 W/m 11,4 C 0,0 km/h (0 Bft)
20.05.2020 04:00 14,6 C 80 % 1021,3 hPa 0,0 mm 0,0 km/h (0 Bft) N 0,00 h 0,0 mm 0,0 UV-I 0 W/m 11,1 C 0,0 km/h (0 Bft)
20.05.2020 05:00 13,8 C 82 % 1021,3 hPa 0,0 mm 0,0 km/h (0 Bft) N 0,17 h 0,0 mm 0,0 UV-I 11 W/m 10,8 C 0,0 km/h (0 Bft)
20.05.2020 06:00 13,2 C 85 % 1021,6 hPa 0,0 mm 0,0 km/h (0 Bft) N 1,00 h 0,0 mm 0,0 UV-I 71 W/m 10,7 C 0,0 km/h (0 Bft)
20.05.2020 07:00 13,8 C 85 % 1021,8 hPa 0,0 mm 0,0 km/h (0 Bft) N 1,00 h 0,0 mm 0,0 UV-I 216 W/m 11,2 C 0,0 km/h (0 Bft)
20.05.2020 08:00 15,1 C 81 % 1022,0 hPa 0,0 mm 0,0 km/h (0 Bft) N 1,00 h 0,0 mm 0,0 UV-I 408 W/m 11,9 C 0,0 km/h (0 Bft)
20.05.2020 09:00 16,7 C 74 % 1022,2 hPa 0,0 mm 0,0 km/h (0 Bft) N 0,58 h 0,1 mm 0,5 UV-I 373 W/m 12,0 C 0,0 km/h (0 Bft)
20.05.2020 10:00 17,3 C 69 % 1022,4 hPa 0,0 mm 0,0 km/h (0 Bft) N 0,00 h 0,1 mm 0,6 UV-I 271 W/m 11,5 C 0,0 km/h (0 Bft)
20.05.2020 11:00 17,9 C 66 % 1022,5 hPa 0,0 mm 0,0 km/h (0 Bft) N 0,00 h 0,1 mm 0,7 UV-I 266 W/m 11,5 C 0,0 km/h (0 Bft)
20.05.2020 12:00 18,3 C 65 % 1022,5 hPa 0,0 mm 0,0 km/h (0 Bft) N 0,17 h 0,1 mm 1,4 UV-I 413 W/m 11,5 C 0,0 km/h (0 Bft)
20.05.2020 13:00 18,9 C 62 % 1022,5 hPa 0,0 mm 0,0 km/h (0 Bft) N 0,25 h 0,2 mm 1,5 UV-I 429 W/m 11,4 C 0,0 km/h (0 Bft)
20.05.2020 14:00 19,6 C 59 % 1022,2 hPa 0,0 mm 0,0 km/h (0 Bft) N 0,92 h 0,2 mm 2,2 UV-I 626 W/m 11,5 C 0,0 km/h (0 Bft)
20.05.2020 15:00 20,4 C 55 % 1021,8 hPa 0,0 mm 0,0 km/h (0 Bft) N 0,75 h 0,3 mm 1,7 UV-I 521 W/m 11,2 C 0,0 km/h (0 Bft)
20.05.2020 16:00 21,0 C 53 % 1021,6 hPa 0,0 mm 0,0 km/h (0 Bft) N 0,75 h 0,3 mm 1,5 UV-I 594 W/m 11,0 C 0,0 km/h (0 Bft)
20.05.2020 17:00 21,2 C 52 % 1021,6 hPa 0,0 mm 0,0 km/h (0 Bft) N 0,75 h 0,3 mm 0,7 UV-I 436 W/m 10,9 C 0,0 km/h (0 Bft)
20.05.2020 18:00 20,6 C 54 % 1021,4 hPa 0,0 mm 0,0 km/h (0 Bft) N 0,67 h 0,2 mm 0,0 UV-I 286 W/m 10,8 C 0,0 km/h (0 Bft)
20.05.2020 19:00 20,1 C 55 % 1021,3 hPa 0,0 mm 0,0 km/h (0 Bft) N 1,00 h 0,2 mm 0,0 UV-I 215 W/m 10,9 C 0,0 km/h (0 Bft)
20.05.2020 20:00 19,3 C 59 % 1021,2 hPa 0,0 mm 0,0 km/h (0 Bft) N 0,25 h 0,1 mm 0,0 UV-I 48 W/m 11,1 C 0,0 km/h (0 Bft)
20.05.2020 21:00 17,9 C 65 % 1021,6 hPa 0,0 mm 0,0 km/h (0 Bft) N 0,17 h 0,0 mm 0,0 UV-I 11 W/m 11,1 C 0,0 km/h (0 Bft)
20.05.2020 22:00 15,9 C 71 % 1021,9 hPa 0,0 mm 0,0 km/h (0 Bft) N 0,00 h 0,0 mm 0,0 UV-I 0 W/m 10,6 C 0,0 km/h (0 Bft)
20.05.2020 23:00 14,2 C 77 % 1022,2 hPa 0,0 mm 0,0 km/h (0 Bft) N 0,00 h 0,0 mm 0,0 UV-I 0 W/m 10,3 C 0,0 km/h (0 Bft)
21.05.2020 00:00 13,1 C 81 % 1022,2 hPa 0,0 mm 0,0 km/h (0 Bft) N 0,00 h 0,0 mm 0,0 UV-I 0 W/m 9,9 C 0,0 km/h (0 Bft)
21.05.2020 01:00 12,2 C 83 % 1022,1 hPa 0,0 mm 0,0 km/h (0 Bft) N 0,00 h 0,0 mm 0,0 UV-I 0 W/m 9,5 C 0,0 km/h (0 Bft)
21.05.2020 02:00 11,6 C 85 % 1022,0 hPa 0,0 mm 0,0 km/h (0 Bft) N 0,00 h 0,0 mm 0,0 UV-I 0 W/m 9,1 C 0,0 km/h (0 Bft)
21.05.2020 03:00 11,0 C 86 % 1021,7 hPa 0,0 mm 0,0 km/h (0 Bft) N 0,00 h 0,0 mm 0,0 UV-I 0 W/m 8,8 C 0,0 km/h (0 Bft)
21.05.2020 04:00 10,5 C 87 % 1021,3 hPa 0,0 mm 0,0 km/h (0 Bft) N 0,00 h 0,0 mm 0,0 UV-I 0 W/m 8,4 C 0,0 km/h (0 Bft)
21.05.2020 05:00 10,0 C 88 % 1021,2 hPa 0,0 mm 0,0 km/h (0 Bft) N 0,00 h 0,0 mm 0,0 UV-I 9 W/m 8,1 C 0,0 km/h (0 Bft)
21.05.2020 06:00 9,8 C 89 % 1021,6 hPa 0,0 mm 0,0 km/h (0 Bft) N 0,25 h 0,0 mm 0,0 UV-I 62 W/m 8,1 C 0,0 km/h (0 Bft)
21.05.2020 07:00 11,5 C 90 % 1021,7 hPa 0,0 mm 0,0 km/h (0 Bft) N 1,00 h 0,0 mm 0,0 UV-I 194 W/m 9,9 C 0,0 km/h (0 Bft)
21.05.2020 08:00 14,6 C 79 % 1021,7 hPa 0,0 mm 1,4 km/h (1 Bft) O 1,00 h 0,0 mm 0,0 UV-I 379 W/m 11,0 C 7,8 km/h (2 Bft)
21.05.2020 09:00 17,1 C 69 % 1021,8 hPa 0,0 mm 1,6 km/h (1 Bft) O 1,00 h 0,1 mm 0,5 UV-I 582 W/m 11,3 C 9,3 km/h (2 Bft)
21.05.2020 10:00 19,5 C 61 % 1021,6 hPa 0,0 mm 0,9 km/h (0 Bft) S-SO 1,00 h 0,2 mm 0,8 UV-I 680 W/m 11,9 C 9,6 km/h (2 Bft)
21.05.2020 11:00 21,8 C 53 % 1021,2 hPa 0,0 mm 1,4 km/h (1 Bft) S-SO 1,00 h 0,3 mm 2,3 UV-I 843 W/m 11,7 C 8,3 km/h (2 Bft)
21.05.2020 12:00 24,0 C 47 % 1020,9 hPa 0,0 mm 4,2 km/h (1 Bft) S 1,00 h 0,4 mm 3,4 UV-I 981 W/m 12,0 C 11,8 km/h (2 Bft)
21.05.2020 13:00 25,3 C 43 % 1020,7 hPa 0,0 mm 2,6 km/h (1 Bft) SO 1,00 h 0,5 mm 4,2 UV-I 1021 W/m 11,8 C 9,8 km/h (2 Bft)
21.05.2020 14:00 27,0 C 36 % 1020,2 hPa 0,0 mm 3,3 km/h (1 Bft) S-SW 1,00 h 0,5 mm 3,9 UV-I 991 W/m 10,8 C 8,9 km/h (2 Bft)
21.05.2020 15:00 26,3 C 36 % 1019,9 hPa 0,0 mm 0,4 km/h (0 Bft) W 1,00 h 0,5 mm 3,1 UV-I 915 W/m 9,9 C 2,8 km/h (1 Bft)
21.05.2020 16:00 27,4 C 34 % 1019,5 hPa 0,0 mm 2,2 km/h (1 Bft) NW 1,00 h 0,5 mm 1,9 UV-I 729 W/m 10,1 C 8,2 km/h (2 Bft)
21.05.2020 17:00 28,4 C 31 % 1019,0 hPa 0,0 mm 3,6 km/h (1 Bft) W-NW 1,00 h 0,4 mm 1,1 UV-I 665 W/m 9,8 C 10,0 km/h (2 Bft)
21.05.2020 18:00 28,0 C 32 % 1018,9 hPa 0,0 mm 1,6 km/h (1 Bft) W-NW 1,00 h 0,4 mm 0,5 UV-I 477 W/m 9,6 C 5,9 km/h (2 Bft)
21.05.2020 19:00 27,0 C 34 % 1018,6 hPa 0,0 mm 0,1 km/h (0 Bft) N 1,00 h 0,3 mm 0,0 UV-I 283 W/m 9,6 C 0,7 km/h (0 Bft)
21.05.2020 20:00 25,2 C 43 % 1018,7 hPa 0,0 mm 0,0 km/h (0 Bft) N 0,25 h 0,2 mm 0,0 UV-I 48 W/m 11,7 C 0,0 km/h (0 Bft)
21.05.2020 21:00 22,1 C 53 % 1018,8 hPa 0,0 mm 0,0 km/h (0 Bft) N 0,08 h 0,0 mm 0,0 UV-I 10 W/m 11,9 C 0,2 km/h (0 Bft)
21.05.2020 22:00 19,4 C 62 % 1019,3 hPa 0,0 mm 0,0 km/h (0 Bft) N 0,00 h 0,0 mm 0,0 UV-I 0 W/m 11,9 C 0,0 km/h (0 Bft)
21.05.2020 23:00 17,6 C 67 % 1019,2 hPa 0,0 mm 0,0 km/h (0 Bft) N 0,00 h 0,0 mm 0,0 UV-I 0 W/m 11,5 C 0,0 km/h (0 Bft)
22.05.2020 00:00 17,3 C 70 % 1018,9 hPa 0,0 mm 0,4 km/h (0 Bft) S 0,00 h 0,0 mm 0,0 UV-I 0 W/m 11,7 C 2,0 km/h (1 Bft)
22.05.2020 01:00 17,4 C 70 % 1018,7 hPa 0,0 mm 0,3 km/h (0 Bft) S 0,00 h 0,0 mm 0,0 UV-I 0 W/m 11,8 C 1,5 km/h (1 Bft)
22.05.2020 02:00 17,1 C 71 % 1018,3 hPa 0,0 mm 0,7 km/h (0 Bft) S 0,00 h 0,0 mm 0,0 UV-I 0 W/m 11,8 C 3,1 km/h (1 Bft)
22.05.2020 03:00 16,8 C 73 % 1018,0 hPa 0,0 mm 1,2 km/h (1 Bft) S 0,00 h 0,0 mm 0,0 UV-I 0 W/m 11,8 C 4,8 km/h (1 Bft)
22.05.2020 04:00 16,3 C 75 % 1017,9 hPa 0,0 mm 1,3 km/h (1 Bft) S 0,00 h 0,0 mm 0,0 UV-I 0 W/m 11,9 C 5,6 km/h (1 Bft)
22.05.2020 05:00 15,7 C 79 % 1017,8 hPa 0,0 mm 0,5 km/h (0 Bft) S 0,08 h 0,0 mm 0,0 UV-I 11 W/m 12,0 C 3,9 km/h (1 Bft)
22.05.2020 06:00 15,7 C 81 % 1017,7 hPa 0,0 mm 1,2 km/h (1 Bft) O 0,33 h 0,0 mm 0,0 UV-I 60 W/m 12,4 C 5,7 km/h (1 Bft)
22.05.2020 07:00 16,7 C 79 % 1017,6 hPa 0,0 mm 2,7 km/h (1 Bft) O 0,25 h 0,0 mm 0,0 UV-I 105 W/m 13,0 C 9,4 km/h (2 Bft)
22.05.2020 08:00 17,9 C 76 % 1017,7 hPa 0,0 mm 2,2 km/h (1 Bft) O 0,17 h 0,1 mm 0,0 UV-I 190 W/m 13,6 C 9,8 km/h (2 Bft)
22.05.2020 09:00 19,4 C 71 % 1017,7 hPa 0,0 mm 2,7 km/h (1 Bft) O 0,00 h 0,1 mm 0,0 UV-I 199 W/m 14,0 C 8,5 km/h (2 Bft)
22.05.2020 10:00 20,9 C 69 % 1017,7 hPa 0,0 mm 2,9 km/h (1 Bft) O 0,00 h 0,1 mm 0,3 UV-I 235 W/m 14,9 C 9,4 km/h (2 Bft)
22.05.2020 11:00 22,3 C 66 % 1017,2 hPa 0,0 mm 4,2 km/h (1 Bft) S-SO 0,00 h 0,1 mm 0,6 UV-I 249 W/m 15,8 C 12,6 km/h (3 Bft)
22.05.2020 12:00 24,2 C 58 % 1017,1 hPa 0,0 mm 7,0 km/h (2 Bft) SW 0,67 h 0,2 mm 1,6 UV-I 492 W/m 15,5 C 17,4 km/h (3 Bft)
22.05.2020 13:00 25,8 C 51 % 1016,6 hPa 0,0 mm 8,1 km/h (2 Bft) SW 0,17 h 0,3 mm 1,1 UV-I 364 W/m 14,9 C 18,7 km/h (3 Bft)
22.05.2020 14:00 26,7 C 49 % 1016,2 hPa 0,0 mm 6,9 km/h (2 Bft) W 0,75 h 0,2 mm 1,6 UV-I 494 W/m 15,1 C 17,6 km/h (3 Bft)
22.05.2020 15:00 27,0 C 48 % 1016,1 hPa 0,0 mm 6,4 km/h (2 Bft) W 0,08 h 0,3 mm 0,8 UV-I 319 W/m 15,1 C 14,8 km/h (3 Bft)
22.05.2020 16:00 25,2 C 57 % 1016,2 hPa 3,8 mm 8,9 km/h (2 Bft) NW 0,00 h 0,2 mm 0,0 UV-I 131 W/m 15,8 C 24,4 km/h (4 Bft)
22.05.2020 17:00 20,5 C 79 % 1016,6 hPa 0,0 mm 5,0 km/h (1 Bft) N-NW 0,00 h 0,1 mm 0,4 UV-I 142 W/m 16,7 C 16,9 km/h (3 Bft)
22.05.2020 18:00 20,8 C 69 % 1017,4 hPa 0,0 mm 3,4 km/h (1 Bft) N-NW 0,00 h 0,1 mm 0,0 UV-I 146 W/m 14,9 C 13,9 km/h (3 Bft)
22.05.2020 19:00 18,7 C 78 % 1018,7 hPa 0,3 mm 5,9 km/h (2 Bft) N-NW 0,00 h 0,1 mm 0,0 UV-I 60 W/m 14,9 C 20,9 km/h (4 Bft)
22.05.2020 20:00 17,2 C 80 % 1019,3 hPa 0,0 mm 10,0 km/h (2 Bft) NW 0,00 h 0,1 mm 0,0 UV-I 35 W/m 13,8 C 24,2 km/h (4 Bft)
22.05.2020 21:00 16,3 C 85 % 1019,6 hPa 0,5 mm 6,3 km/h (2 Bft) W-NW 0,00 h 0,0 mm 0,0 UV-I 4 W/m 13,8 C 15,4 km/h (3 Bft)
22.05.2020 22:00 15,8 C 88 % 1019,7 hPa 0,3 mm 3,9 km/h (1 Bft) O 0,00 h 0,0 mm 0,0 UV-I 0 W/m 13,8 C 10,7 km/h (2 Bft)
22.05.2020 23:00 15,7 C 88 % 1019,8 hPa 0,3 mm 4,2 km/h (1 Bft) O 0,00 h 0,0 mm 0,0 UV-I 0 W/m 13,7 C 10,2 km/h (2 Bft)
23.05.2020 00:00 15,8 C 86 % 1019,8 hPa 0,0 mm 7,3 km/h (2 Bft) O 0,00 h 0,0 mm 0,0 UV-I 0 W/m 13,5 C 17,2 km/h (3 Bft)
23.05.2020 01:00 15,8 C 83 % 1020,1 hPa 0,0 mm 8,6 km/h (2 Bft) NW 0,00 h 0,0 mm 0,0 UV-I 0 W/m 12,9 C 18,0 km/h (3 Bft)
23.05.2020 02:00 15,4 C 71 % 1020,2 hPa 0,0 mm 11,0 km/h (2 Bft) O 0,00 h 0,0 mm 0,0 UV-I 0 W/m 10,1 C 22,0 km/h (4 Bft)
23.05.2020 03:00 14,7 C 66 % 1020,2 hPa 0,0 mm 8,5 km/h (2 Bft) O 0,00 h 0,0 mm 0,0 UV-I 0 W/m 8,5 C 15,3 km/h (3 Bft)
23.05.2020 04:00 14,2 C 61 % 1020,3 hPa 0,0 mm 8,7 km/h (2 Bft) O 0,00 h 0,0 mm 0,0 UV-I 0 W/m 6,7 C 15,7 km/h (3 Bft)
23.05.2020 05:00 13,6 C 60 % 1020,5 hPa 0,0 mm 6,7 km/h (2 Bft) O 0,00 h 0,0 mm 0,0 UV-I 6 W/m 5,9 C 12,6 km/h (3 Bft)
23.05.2020 06:00 13,3 C 64 % 1020,7 hPa 0,0 mm 6,5 km/h (2 Bft) O 0,00 h 0,0 mm 0,0 UV-I 25 W/m 6,6 C 14,3 km/h (3 Bft)
23.05.2020 07:00 13,3 C 65 % 1021,2 hPa 0,0 mm 7,5 km/h (2 Bft) O 0,00 h 0,0 mm 0,0 UV-I 33 W/m 6,8 C 16,1 km/h (3 Bft)
23.05.2020 08:00 13,3 C 65 % 1021,9 hPa 0,0 mm 8,5 km/h (2 Bft) O 0,00 h 0,1 mm 0,0 UV-I 77 W/m 6,8 C 16,9 km/h (3 Bft)
23.05.2020 09:00 13,8 C 66 % 1022,2 hPa 0,0 mm 11,6 km/h (2 Bft) O 0,00 h 0,1 mm 0,5 UV-I 184 W/m 7,6 C 23,3 km/h (4 Bft)
23.05.2020 10:00 14,3 C 66 % 1022,3 hPa 0,0 mm 13,5 km/h (3 Bft) O 0,08 h 0,1 mm 0,8 UV-I 264 W/m 7,9 C 27,0 km/h (4 Bft)
23.05.2020 11:00 14,6 C 61 % 1022,7 hPa 0,0 mm 13,0 km/h (3 Bft) O 0,00 h 0,2 mm 1,0 UV-I 295 W/m 7,2 C 27,0 km/h (4 Bft)
23.05.2020 12:00 14,6 C 61 % 1023,1 hPa 0,0 mm 12,5 km/h (3 Bft) O 0,08 h 0,2 mm 1,0 UV-I 286 W/m 7,2 C 25,7 km/h (4 Bft)
23.05.2020 13:00 15,7 C 59 % 1022,9 hPa 0,0 mm 12,4 km/h (3 Bft) O 1,00 h 0,2 mm 2,7 UV-I 659 W/m 7,8 C 25,9 km/h (4 Bft)
23.05.2020 14:00 16,7 C 57 % 1022,9 hPa 0,0 mm 13,3 km/h (3 Bft) N-NW 0,83 h 0,3 mm 2,2 UV-I 553 W/m 8,1 C 30,9 km/h (5 Bft)
23.05.2020 15:00 18,1 C 49 % 1022,8 hPa 0,0 mm 13,1 km/h (3 Bft) O 0,92 h 0,3 mm 2,7 UV-I 751 W/m 7,3 C 28,5 km/h (4 Bft)
23.05.2020 16:00 19,2 C 42 % 1022,8 hPa 0,0 mm 12,5 km/h (3 Bft) O 0,75 h 0,4 mm 1,7 UV-I 598 W/m 5,9 C 31,7 km/h (5 Bft)
23.05.2020 17:00 19,6 C 36 % 1022,7 hPa 0,0 mm 18,0 km/h (3 Bft) N-NW 1,00 h 0,4 mm 1,1 UV-I 675 W/m 4,0 C 39,6 km/h (6 Bft)
23.05.2020 18:00 19,5 C 36 % 1023,1 hPa 0,0 mm 18,7 km/h (3 Bft) NW 1,00 h 0,4 mm 0,3 UV-I 456 W/m 4,1 C 41,8 km/h (6 Bft)
23.05.2020 19:00 19,0 C 36 % 1023,5 hPa 0,0 mm 18,8 km/h (3 Bft) N-NW 1,00 h 0,3 mm 0,0 UV-I 274 W/m 3,5 C 40,2 km/h (6 Bft)
23.05.2020 20:00 17,4 C 39 % 1024,2 hPa 0,0 mm 16,6 km/h (3 Bft) N 0,33 h 0,3 mm 0,0 UV-I 54 W/m 3,1 C 35,2 km/h (5 Bft)
23.05.2020 21:00 15,9 C 43 % 1024,9 hPa 0,0 mm 11,2 km/h (2 Bft) NW 0,17 h 0,1 mm 0,0 UV-I 11 W/m 3,5 C 24,4 km/h (4 Bft)
23.05.2020 22:00 14,6 C 47 % 1025,5 hPa 0,0 mm 9,5 km/h (2 Bft) O 0,00 h 0,1 mm 0,0 UV-I 0 W/m 3,4 C 18,9 km/h (3 Bft)
23.05.2020 23:00 13,5 C 52 % 1026,0 hPa 0,0 mm 8,0 km/h (2 Bft) O 0,00 h 0,1 mm 0,0 UV-I 0 W/m 3,7 C 14,2 km/h (3 Bft)
24.05.2020 00:00 12,6 C 57 % 1026,3 hPa 0,0 mm 7,1 km/h (2 Bft) O 0,00 h 0,0 mm 0,0 UV-I 0 W/m 4,3 C 14,8 km/h (3 Bft)
24.05.2020 01:00 12,3 C 59 % 1026,2 hPa 0,0 mm 8,4 km/h (2 Bft) N-NW 0,00 h 0,0 mm 0,0 UV-I 0 W/m 4,6 C 19,6 km/h (3 Bft)
24.05.2020 02:00 11,6 C 63 % 1026,3 hPa 0,0 mm 9,9 km/h (2 Bft) N-NW 0,00 h 0,0 mm 0,0 UV-I 0 W/m 4,8 C 20,7 km/h (4 Bft)
24.05.2020 03:00 10,9 C 67 % 1026,3 hPa 0,0 mm 10,0 km/h (2 Bft) N-NW 0,00 h 0,0 mm 0,0 UV-I 0 W/m 5,0 C 19,8 km/h (3 Bft)
24.05.2020 04:00 10,6 C 71 % 1026,5 hPa 0,0 mm 10,9 km/h (2 Bft) N-NW 0,00 h 0,0 mm 0,0 UV-I 0 W/m 5,5 C 23,0 km/h (4 Bft)
24.05.2020 05:00 10,3 C 74 % 1026,8 hPa 0,0 mm 8,7 km/h (2 Bft) O 0,25 h 0,0 mm 0,0 UV-I 12 W/m 5,8 C 17,2 km/h (3 Bft)
24.05.2020 06:00 10,4 C 77 % 1027,2 hPa 0,0 mm 8,4 km/h (2 Bft) O 0,83 h 0,0 mm 0,0 UV-I 74 W/m 6,6 C 18,3 km/h (3 Bft)
24.05.2020 07:00 11,1 C 77 % 1027,8 hPa 0,0 mm 8,8 km/h (2 Bft) O 0,58 h 0,0 mm 0,0 UV-I 131 W/m 7,3 C 18,7 km/h (3 Bft)
24.05.2020 08:00 12,3 C 75 % 1028,2 hPa 0,0 mm 12,6 km/h (3 Bft) O 0,00 h 0,1 mm 0,4 UV-I 153 W/m 8,0 C 27,0 km/h (4 Bft)
24.05.2020 09:00 13,3 C 72 % 1028,4 hPa 0,0 mm 13,6 km/h (3 Bft) O 0,50 h 0,1 mm 0,6 UV-I 404 W/m 8,2 C 27,8 km/h (4 Bft)
24.05.2020 10:00 14,5 C 66 % 1028,4 hPa 0,0 mm 12,7 km/h (3 Bft) O 0,67 h 0,2 mm 1,1 UV-I 561 W/m 8,2 C 25,2 km/h (4 Bft)
24.05.2020 11:00 15,9 C 58 % 1028,1 hPa 0,0 mm 14,2 km/h (3 Bft) O 0,83 h 0,3 mm 2,5 UV-I 736 W/m 7,6 C 32,6 km/h (5 Bft)
24.05.2020 12:00 16,6 C 56 % 1028,1 hPa 0,0 mm 14,5 km/h (3 Bft) N-NW 0,00 h 0,4 mm 1,5 UV-I 371 W/m 7,8 C 32,6 km/h (5 Bft)
24.05.2020 13:00 17,3 C 56 % 1028,0 hPa 0,0 mm 14,9 km/h (3 Bft) O 0,17 h 0,2 mm 1,9 UV-I 377 W/m 8,4 C 36,3 km/h (5 Bft)
24.05.2020 14:00 16,7 C 60 % 1028,5 hPa 0,0 mm 11,7 km/h (2 Bft) N-NW 0,00 h 0,3 mm 1,1 UV-I 244 W/m 8,9 C 34,2 km/h (5 Bft)
24.05.2020 15:00 16,5 C 63 % 1029,0 hPa 0,0 mm 9,0 km/h (2 Bft) N 0,08 h 0,2 mm 1,0 UV-I 301 W/m 9,4 C 28,2 km/h (4 Bft)
24.05.2020 16:00 16,6 C 65 % 1029,2 hPa 0,0 mm 9,4 km/h (2 Bft) N-NW 0,42 h 0,2 mm 1,2 UV-I 413 W/m 10,0 C 30,5 km/h (5 Bft)
24.05.2020 17:00 16,1 C 68 % 1029,5 hPa 0,0 mm 6,1 km/h (2 Bft) N-NW 0,08 h 0,2 mm 0,6 UV-I 263 W/m 10,2 C 22,4 km/h (4 Bft)
24.05.2020 18:00 16,4 C 68 % 1029,7 hPa 0,0 mm 6,2 km/h (2 Bft) N-NW 0,08 h 0,1 mm 0,3 UV-I 186 W/m 10,5 C 20,5 km/h (4 Bft)
24.05.2020 19:00 15,4 C 74 % 1030,0 hPa 0,0 mm 5,3 km/h (1 Bft) O 0,00 h 0,1 mm 0,0 UV-I 72 W/m 10,7 C 20,0 km/h (4 Bft)
24.05.2020 20:00 14,9 C 77 % 1030,4 hPa 0,0 mm 2,0 km/h (1 Bft) N 0,08 h 0,1 mm 0,0 UV-I 38 W/m 11,0 C 10,2 km/h (2 Bft)
24.05.2020 21:00 13,3 C 86 % 1030,9 hPa 0,0 mm 2,4 km/h (1 Bft) NW 0,00 h 0,0 mm 0,0 UV-I 4 W/m 11,0 C 9,4 km/h (2 Bft)
24.05.2020 22:00 12,7 C 90 % 1031,1 hPa 0,0 mm 1,0 km/h (0 Bft) N-NW 0,00 h 0,0 mm 0,0 UV-I 0 W/m 11,1 C 5,2 km/h (1 Bft)
24.05.2020 23:00 12,9 C 90 % 1031,2 hPa 0,0 mm 2,3 km/h (1 Bft) N-NW 0,00 h 0,0 mm 0,0 UV-I 0 W/m 11,3 C 7,4 km/h (2 Bft)
Min-Datum _ 18.05.20 21.05.20 22.05.20 - 18.05.20 - - - - - 23.05.20 18.05.20
_ Min-Zeit 04:45 17:55 14:50 - 00:00 - - - - - 20:10 00:00
Minimum _ 8,7 C 29 % 1016,0 hPa - 0,0 km/h (0 Bft) - - - - - 2,6 C 0,0 km/h (0 Bft)
Max-Datum _ 21.05.20 21.05.20 24.05.20 22.05.20 23.05.20 - 18.05.20 18.05.20 19.05.20 19.05.20 22.05.20 23.05.20
_ Max-Zeit 18:10 07:15 23:05 16:45 20:00 - 06:55 15:00 13:10 13:10 17:15 19:10
Maximum _ 29,1 C 93 % 1031,3 hPa 3,8 mm 25,4 km/h
N (4 Bft)
- 0,08 h 0,5 mm 4,4 UV-I 1137 W/m 18,1 C 48,9 km/h
N (6 Bft)
Durchschnitt _ 17,0 C 62 % 1022,1 hPa #5,1 mm 4,4 km/h (1 Bft) O #60:50 h #22,631 mm 1,6 UV-I 361 W/m 9,3 C 11,1 km/h (2 Bft)



© 1998 - 2020 www.pulheimwetter.de